Terminal Aerodrome Forecast
Issued by NWS Sterling, VA

Current Version | Previous Version | Text Only | Print | Product List | Glossary Off
Versions: 1 2 3 4 5 6 7 8 9 10 11 12 13 14 15 16 17 18 19 20 21 22 23

000
FTUS41 KLWX 260843 AAA
TAFIAD
TAF AMD
KIAD 260843Z 2609/2712 VRB03KT P6SM OVC060
     FM261000 04007KT 3SM -SN OVC025
     FM261200 01010KT 2SM -SN OVC010
     FM261600 35010KT P6SM OVC020
     FM262200 05004KT P6SM OVC025=

USA.gov is the U.S. government's official web portal to all federal, state and local government web resources and services.